Latest Coastal Weather Observations for Portland Harbour

IDV60701

Issued at 8:11 pm EST Saturday 23 May 2015 (issued every 10 minutes, with the page automatically refreshed every 10 minutes)

About coastal observations | Map of coastal stations | Coastal observations for VIC | Marine services | Other Formats
Station Details ID: 090192 Name: PORTLAND NTC AWS Lat: -38.34 Lon: 141.61 Height: 0.0 m
Data from the previous 72 hours. | See also: Recent months for locations in Victoria
Date/Time
EST
Temp

°C
Wind Pressure Rain
since 9am
mm
Weather Cloud Vis
km
Sea
Height
m
Swell
Dir
 
Speed
knots
Gust
knots
hPa Trend Height
m
Period
s
Dir
23/08:00pm 11.1 ENE 9 13 1031.5 - - - - - - - - -
23/07:30pm 11.6 ENE 9 11 1031.4 - - - - - - - - -
23/07:00pm 11.7 ENE 10 13 1031.2 - - - - - - - - -
23/06:30pm 11.4 E 10 13 1031.0 - - - - - - - - -
23/06:00pm 11.6 E 9 12 1031.1 - - - - - - - - -
23/05:30pm 11.5 E 10 13 1030.9 - - - - - - - - -
23/05:00pm 11.5 E 8 11 1031.2 - - - - - - - - -
23/04:30pm 12.0 E 10 13 1031.0 - - - - - - - - -
23/04:00pm 12.2 E 10 13 1031.0 - - - - - - - - -
23/03:30pm 12.0 E 9 13 1030.9 - - - - - - - - -
23/03:00pm 11.7 ENE 9 13 1031.2 - - - - - - - - -
23/02:30pm 11.6 E 8 13 1031.3 - - - - - - - - -
23/02:00pm 11.6 E 10 14 1031.4 - - - - - - - - -
23/01:30pm 11.7 E 9 12 1031.5 - - - - - - - - -
23/01:00pm 11.4 E 10 14 1031.8 - - - - - - - - -
23/12:30pm 11.5 E 10 14 1032.0 - - - - - - - - -
23/12:00pm 11.6 ESE 9 12 1032.7 - - - - - - - - -
23/11:30am 12.1 ESE 9 13 1033.1 - - - - - - - - -
23/11:00am 11.8 ESE 6 9 1033.6 - - - - - - - - -
23/10:30am 11.6 SE 6 12 1033.7 - - - - - - - - -
23/10:00am 11.8 ESE 8 13 1033.5 - - - - - - - - -
23/09:30am 11.6 ESE 8 10 1033.7 - - - - - - - - -
23/09:00am 11.6 E 7 11 1033.6 - - - - - - - - -
23/08:30am 11.7 E 8 12 1033.3 - - - - - - - - -
23/08:00am 11.5 E 7 13 1033.2 - - - - - - - - -
23/07:30am 11.5 E 8 13 1032.7 - - - - - - - - -
23/07:00am 11.7 ESE 8 14 1032.8 - - - - - - - - -
23/06:30am 11.8 SE 8 12 1032.6 - - - - - - - - -
23/06:00am 11.8 ESE 6 8 1032.5 - - - - - - - - -
23/05:30am 11.7 ESE 5 10 1032.5 - - - - - - - - -
23/05:00am 11.5 ESE 5 9 1032.3 - - - - - - - - -
23/04:30am 11.7 SE 6 9 1032.2 - - - - - - - - -
23/04:00am 11.7 SSE 7 10 1032.2 - - - - - - - - -
23/03:30am 11.7 ESE 7 11 1032.1 - - - - - - - - -
23/03:00am 11.9 SE 9 12 1032.3 - - - - - - - - -
23/02:30am 12.0 E 7 10 1032.2 - - - - - - - - -
23/02:00am 11.8 ESE 8 14 1032.4 - - - - - - - - -
23/01:30am 12.0 E 9 13 1032.3 - - - - - - - - -
23/01:00am 11.8 SE 9 12 1032.4 - - - - - - - - -
23/12:30am 11.7 SE 9 13 1032.8 - - - - - - - - -
23/12:00am 11.9 SSE 10 14 1032.9 - - - - - - - - -
 
Date/Time
EST
Temp

°C
Wind Pressure Rain
since 9am
mm
Weather Cloud Vis
km
Sea
Height
m
Swell
Dir
 
Speed
knots
Gust
knots
hPa Trend Height
m
Period
s
Dir
22/11:30pm 12.1 SE 9 14 1032.8 - - - - - - - - -
22/11:00pm 11.9 ESE 8 13 1033.0 - - - - - - - - -
22/10:30pm 11.9 SSE 9 12 1033.2 - - - - - - - - -
22/10:00pm 12.2 SSE 11 15 1033.1 - - - - - - - - -
22/09:30pm 12.4 SSE 11 14 1033.1 - - - - - - - - -
22/09:00pm 12.4 SE 8 11 1033.1 - - - - - - - - -
22/08:30pm 12.0 SSE 5 8 1033.2 - - - - - - - - -
22/08:00pm 12.0 SE 7 11 1033.1 - - - - - - - - -
22/07:30pm 11.9 SSE 10 14 1033.1 - - - - - - - - -
22/07:00pm 12.2 SE 11 17 1032.7 - - - - - - - - -
22/06:30pm 12.0 SSE 7 10 1032.7 - - - - - - - - -
22/06:00pm 12.0 SSE 9 14 1032.5 - - - - - - - - -
22/05:30pm 12.1 SSE 8 12 1032.4 - - - - - - - - -
22/05:00pm 12.1 SE 7 11 1032.4 - - - - - - - - -
22/04:30pm 12.1 SE 10 15 1032.3 - - - - - - - - -
22/04:00pm 12.3 SSE 9 14 1032.1 - - - - - - - - -
22/03:30pm 12.1 SE 10 14 1031.9 - - - - - - - - -
22/03:00pm 12.3 SSE 9 14 1031.7 - - - - - - - - -
22/02:30pm 12.3 SE 11 16 1031.7 - - - - - - - - -
22/02:00pm 12.4 SE 10 14 1031.8 - - - - - - - - -
22/01:30pm 12.1 SE 10 14 1032.0 - - - - - - - - -
22/01:00pm 12.3 SE 9 13 1032.1 - - - - - - - - -
22/12:30pm 12.1 SE 11 14 1032.2 - - - - - - - - -
22/12:00pm 12.2 SSE 11 15 1032.4 - - - - - - - - -
22/11:30am 12.3 SE 10 14 1032.4 - - - - - - - - -
22/11:00am 12.3 SE 11 18 1032.5 - - - - - - - - -
22/10:30am 12.3 SE 11 15 1032.4 - - - - - - - - -
22/10:00am 12.2 SSE 13 17 1032.0 - - - - - - - - -
22/09:30am 12.2 SSE 11 16 1031.8 - - - - - - - - -
22/09:00am 12.4 SSE 11 18 1031.7 - - - - - - - - -
22/08:30am 12.4 SE 12 19 1031.4 - - - - - - - - -
22/08:00am 12.5 SSE 12 17 1031.1 - - - - - - - - -
22/07:30am 12.5 SSE 11 18 1030.9 - - - - - - - - -
22/07:00am 12.5 SSE 8 12 1030.6 - - - - - - - - -
22/06:30am 12.6 SE 11 16 1030.5 - - - - - - - - -
22/06:00am 12.8 SE 14 17 1030.1 - - - - - - - - -
22/05:30am 12.8 SSE 8 14 1029.8 - - - - - - - - -
22/05:00am 12.8 SSE 10 13 1029.7 - - - - - - - - -
22/04:30am 12.7 SSE 12 18 1029.6 - - - - - - - - -
22/04:00am 13.0 SSE 9 16 1029.4 - - - - - - - - -
22/03:30am 13.0 SSE 9 14 1029.3 - - - - - - - - -
22/03:00am 13.0 SSE 14 21 1029.4 - - - - - - - - -
22/02:30am 13.0 SSE 11 15 1029.3 - - - - - - - - -
22/02:00am 13.0 SSE 9 14 1029.2 - - - - - - - - -
22/01:30am 13.2 SSE 10 16 1029.1 - - - - - - - - -
22/01:00am 13.1 SSE 9 14 1028.9 - - - - - - - - -
22/12:30am 12.9 SSE 12 15 1029.0 - - - - - - - - -
22/12:00am 13.0 S 12 15 1028.8 - - - - - - - - -
 
Date/Time
EST
Temp

°C
Wind Pressure Rain
since 9am
mm
Weather Cloud Vis
km
Sea
Height
m
Swell
Dir
 
Speed
knots
Gust
knots
hPa Trend Height
m
Period
s
Dir
21/11:30pm 12.6 SSE 8 12 1028.9 - - - - - - - - -
21/11:00pm 13.0 SSE 11 16 1028.9 - - - - - - - - -
21/10:30pm 13.0 SSE 13 17 1029.0 - - - - - - - - -
21/10:00pm 12.8 S 11 14 1029.0 - - - - - - - - -
21/09:30pm 12.7 S 10 15 1028.8 - - - - - - - - -
21/09:00pm 12.7 S 12 17 1028.7 - - - - - - - - -
21/08:30pm 12.5 S 11 15 1028.4 - - - - - - - - -
21/08:00pm 12.9 SSE 11 15 1028.0 - - - - - - - - -
21/07:30pm 13.3 SSE 12 19 1027.9 - - - - - - - - -
21/07:00pm 13.2 SSE 13 19 1027.6 - - - - - - - - -
21/06:30pm 13.1 SSE 12 19 1027.4 - - - - - - - - -
21/06:00pm 12.7 SSE 10 16 1026.9 - - - - - - - - -
21/05:30pm 12.5 SSE 10 15 1026.7 - - - - - - - - -
21/05:00pm 12.6 SSE 10 13 1026.5 - - - - - - - - -
21/04:30pm 12.3 SSE 11 16 1026.3 - - - - - - - - -
21/04:00pm 12.7 SSE 10 14 1026.1 - - - - - - - - -
21/03:30pm 13.1 S 11 16 1025.8 - - - - - - - - -
21/03:00pm 12.7 SSE 8 13 1025.6 - - - - - - - - -
21/02:30pm 12.6 SSE 9 14 1025.6 - - - - - - - - -
21/02:00pm 13.0 SSE 11 17 1025.4 - - - - - - - - -
21/01:30pm 12.8 SSE 10 16 1025.4 - - - - - - - - -
21/01:00pm 12.4 S 9 12 1025.7 - - - - - - - - -
21/12:30pm 12.8 S 10 15 1025.8 - - - - - - - - -
21/12:00pm 12.6 S 10 15 1026.0 - - - - - - - - -
21/11:30am 11.8 S 9 15 1026.2 - - - - - - - - -
21/11:00am 12.2 S 6 8 1026.2 - - - - - - - - -
21/10:30am 12.4 S 10 14 1026.1 - - - - - - - - -
21/10:00am 11.8 S 9 12 1025.9 - - - - - - - - -
21/09:30am 11.5 S 7 11 1025.7 - - - - - - - - -
21/09:00am 11.2 S 9 11 1025.5 - - - - - - - - -
21/08:30am 10.8 S 4 6 1025.2 - - - - - - - - -
21/08:00am 10.4 S 13 20 1025.0 - - - - - - - - -
21/07:30am 11.1 S 8 11 1024.6 - - - - - - - - -
21/07:00am 10.7 SSW 8 11 1024.3 - - - - - - - - -
21/06:30am 10.4 S 10 16 1024.1 - - - - - - - - -
21/06:00am 10.5 SSE 10 14 1024.0 - - - - - - - - -
21/05:30am 10.3 S 4 6 1023.7 - - - - - - - - -
21/05:00am 10.4 S 13 19 1023.5 - - - - - - - - -
21/04:30am 11.5 S 10 14 1023.0 - - - - - - - - -
21/04:00am 11.9 SSW 8 15 1022.9 - - - - - - - - -
21/03:30am 11.7 S 12 16 1022.9 - - - - - - - - -
21/03:00am 11.9 SSE 9 13 1022.9 - - - - - - - - -
21/02:30am 11.9 S 9 15 1022.9 - - - - - - - - -
21/02:00am 11.9 SSW 10 13 1022.7 - - - - - - - - -
21/01:30am 11.8 S 10 16 1022.7 - - - - - - - - -
21/01:00am 11.8 S 12 19 1022.6 - - - - - - - - -
21/12:30am 11.4 SSW 10 13 1022.6 - - - - - - - - -
21/12:00am 11.2 S 9 18 1022.6 - - - - - - - - -
 
Date/Time
EST
Temp

°C
Wind Pressure Rain
since 9am
mm
Weather Cloud Vis
km
Sea
Height
m
Swell
Dir
 
Speed
knots
Gust
knots
hPa Trend Height
m
Period
s
Dir
20/11:30pm 11.2 S 12 17 1022.5 - - - - - - - - -
20/11:00pm 10.9 SSW 11 15 1022.6 - - - - - - - - -
20/10:30pm 10.8 S 12 17 1022.5 - - - - - - - - -
20/10:00pm 11.0 SSW 14 19 1022.4 - - - - - - - - -
20/09:30pm 11.3 S 10 15 1022.0 - - - - - - - - -
20/09:00pm 11.0 S 12 16 1021.7 - - - - - - - - -
20/08:30pm 11.3 S 11 15 1021.3 - - - - - - - - -

Other Formats:

Comma delimited format used in spreadsheet applications
http://www.bom.gov.au/fwo/IDV60701/IDV60701.95826.axf

JavaScript Object Notation format (JSON) in row-major order
http://www.bom.gov.au/fwo/IDV60701/IDV60701.95826.json